SVR48 USSS-USRR
Flight info
| Callsign | SVR48 |
|---|---|
| Flight time | 1h 16m |
| Altitude | 32000 |
| Route | DOSUM L992 NAMOL T376 UTORA A925 HMN L870 STELA |
| Aircraft | A20N/M-SDE2E3FGHIRWXY/LB1 |
Departure
| Time | 2026-04-22 04:59 |
|---|---|
| Airport | Koltsovo Airport (USSS) |
Arrival
| Time | 2026-04-22 06:15 |
|---|---|
| Airport | Surgut International Airport (USRR) |
| Time | Latitude | Longitude | Altitude | Speed | Heading |
|---|---|---|---|---|---|
| 2026-04-22 04:37 | 56.74934 | 60.80258 | 777 ft | 0 kts | 0° |
| 2026-04-22 04:49 | 56.74932 | 60.80258 | 777 ft | 1 kts | 0° |
| 2026-04-22 04:49 | 56.74917 | 60.80258 | 777 ft | 2 kts | 0° |
| 2026-04-22 04:49 | 56.74902 | 60.80258 | 777 ft | 2 kts | 0° |
| 2026-04-22 04:50 | 56.74887 | 60.80258 | 777 ft | 2 kts | 12° |
| 2026-04-22 04:50 | 56.74873 | 60.80248 | 777 ft | 2 kts | 30° |
| 2026-04-22 04:50 | 56.74861 | 60.80232 | 777 ft | 2 kts | 49° |
| 2026-04-22 04:50 | 56.74852 | 60.80209 | 777 ft | 2 kts | 67° |
| 2026-04-22 04:51 | 56.74849 | 60.80183 | 777 ft | 1 kts | 85° |
| 2026-04-22 04:51 | 56.74848 | 60.80171 | 777 ft | 1 kts | 93° |
| 2026-04-22 04:51 | 56.74848 | 60.80165 | 777 ft | 0 kts | 91° |
| 2026-04-22 04:53 | 56.74848 | 60.80183 | 777 ft | 4 kts | 91° |
| 2026-04-22 04:53 | 56.74848 | 60.80288 | 777 ft | 11 kts | 90° |
| 2026-04-22 04:53 | 56.74848 | 60.80445 | 777 ft | 13 kts | 90° |
| 2026-04-22 04:54 | 56.74848 | 60.80626 | 777 ft | 15 kts | 90° |
| 2026-04-22 04:54 | 56.74848 | 60.80828 | 777 ft | 16 kts | 90° |
| 2026-04-22 04:54 | 56.74851 | 60.81045 | 777 ft | 17 kts | 80° |
| 2026-04-22 04:54 | 56.74861 | 60.81246 | 777 ft | 16 kts | 89° |
| 2026-04-22 04:55 | 56.74862 | 60.81455 | 777 ft | 16 kts | 91° |
| 2026-04-22 04:55 | 56.74861 | 60.81669 | 777 ft | 17 kts | 90° |
| 2026-04-22 04:55 | 56.74848 | 60.81884 | 777 ft | 16 kts | 112° |
| 2026-04-22 04:55 | 56.74797 | 60.82077 | 777 ft | 17 kts | 117° |
| 2026-04-22 04:56 | 56.74734 | 60.82204 | 777 ft | 11 kts | 170° |
| 2026-04-22 04:56 | 56.74652 | 60.82209 | 777 ft | 12 kts | 180° |
| 2026-04-22 04:56 | 56.74567 | 60.82207 | 777 ft | 12 kts | 182° |
| 2026-04-22 04:56 | 56.74477 | 60.82201 | 777 ft | 13 kts | 180° |
| 2026-04-22 04:57 | 56.74385 | 60.82198 | 777 ft | 13 kts | 182° |
| 2026-04-22 04:57 | 56.74291 | 60.82191 | 777 ft | 13 kts | 187° |
| 2026-04-22 04:57 | 56.74196 | 60.82172 | 777 ft | 14 kts | 185° |
| 2026-04-22 04:57 | 56.74097 | 60.82157 | 777 ft | 11 kts | 188° |
| 2026-04-22 04:58 | 56.74066 | 60.82043 | 777 ft | 8 kts | 273° |
| 2026-04-22 04:58 | 56.74066 | 60.82033 | 777 ft | 0 kts | 274° |
| 2026-04-22 04:58 | 56.74069 | 60.81944 | 777 ft | 34 kts | 274° |
| 2026-04-22 04:58 | 56.74104 | 60.80993 | 777 ft | 112 kts | 274° |
| 2026-04-22 04:59 | 56.74180 | 60.79213 | 947 ft | 159 kts | 274° |
| 2026-04-22 04:59 | 56.74268 | 60.77226 | 1748 ft | 159 kts | 271° |
| 2026-04-22 04:59 | 56.74318 | 60.75271 | 2696 ft | 155 kts | 269° |
| 2026-04-22 04:59 | 56.74337 | 60.73312 | 3275 ft | 165 kts | 268° |
| 2026-04-22 05:00 | 56.74342 | 60.71069 | 3677 ft | 189 kts | 268° |
| 2026-04-22 05:00 | 56.74350 | 60.68584 | 4181 ft | 208 kts | 270° |
| 2026-04-22 05:00 | 56.74375 | 60.65898 | 4919 ft | 218 kts | 270° |
| 2026-04-22 05:00 | 56.74407 | 60.63164 | 5831 ft | 220 kts | 270° |
| 2026-04-22 05:01 | 56.74438 | 60.60404 | 6719 ft | 223 kts | 270° |
| 2026-04-22 05:01 | 56.74471 | 60.57590 | 7616 ft | 225 kts | 270° |
| 2026-04-22 05:01 | 56.74477 | 60.54760 | 8485 ft | 227 kts | 263° |
| 2026-04-22 05:01 | 56.74007 | 60.51984 | 9022 ft | 242 kts | 242° |
| 2026-04-22 05:02 | 56.72880 | 60.49609 | 9636 ft | 258 kts | 220° |
| 2026-04-22 05:02 | 56.71256 | 60.48166 | 10354 ft | 274 kts | 200° |
| 2026-04-22 05:02 | 56.69254 | 60.48079 | 10815 ft | 305 kts | 174° |
| 2026-04-22 05:02 | 56.67287 | 60.49847 | 11227 ft | 338 kts | 145° |
| 2026-04-22 05:03 | 56.65842 | 60.53377 | 11621 ft | 368 kts | 117° |
| 2026-04-22 05:03 | 56.65316 | 60.58042 | 11980 ft | 392 kts | 91° |
| 2026-04-22 05:03 | 56.65913 | 60.62946 | 12453 ft | 403 kts | 64° |
| 2026-04-22 05:03 | 56.67289 | 60.67379 | 13253 ft | 404 kts | 58° |
| 2026-04-22 05:04 | 56.68671 | 60.71799 | 13933 ft | 410 kts | 61° |
| 2026-04-22 05:04 | 56.69926 | 60.76481 | 14586 ft | 416 kts | 65° |
| 2026-04-22 05:04 | 56.71051 | 60.81339 | 15213 ft | 421 kts | 68° |
| 2026-04-22 05:04 | 56.72103 | 60.86294 | 15800 ft | 427 kts | 69° |
| 2026-04-22 05:05 | 56.73158 | 60.91408 | 16404 ft | 433 kts | 68° |
| 2026-04-22 05:05 | 56.74525 | 60.96220 | 16969 ft | 434 kts | 50° |
| 2026-04-22 05:05 | 56.76640 | 61.00000 | 17674 ft | 426 kts | 29° |
| 2026-04-22 05:05 | 56.79211 | 61.02705 | 18281 ft | 424 kts | 20° |
| 2026-04-22 05:06 | 56.81860 | 61.05123 | 18753 ft | 431 kts | 20° |
| 2026-04-22 05:06 | 56.84529 | 61.07560 | 19253 ft | 437 kts | 20° |
| 2026-04-22 05:06 | 56.87254 | 61.10140 | 19749 ft | 443 kts | 21° |
| 2026-04-22 05:06 | 56.89996 | 61.12815 | 20252 ft | 449 kts | 21° |
| 2026-04-22 05:07 | 56.92739 | 61.15448 | 20731 ft | 452 kts | 19° |
| 2026-04-22 05:07 | 56.95606 | 61.17827 | 21247 ft | 453 kts | 14° |
| 2026-04-22 05:07 | 56.98506 | 61.19872 | 21836 ft | 451 kts | 12° |
| 2026-04-22 05:07 | 57.01459 | 61.21819 | 22374 ft | 454 kts | 11° |
| 2026-04-22 05:08 | 57.04439 | 61.23758 | 22816 ft | 459 kts | 12° |
| 2026-04-22 05:08 | 57.07453 | 61.25721 | 23258 ft | 464 kts | 12° |
| 2026-04-22 05:08 | 57.10527 | 61.27752 | 23727 ft | 468 kts | 12° |
| 2026-04-22 05:08 | 57.13598 | 61.29792 | 24168 ft | 471 kts | 12° |
| 2026-04-22 05:09 | 57.16699 | 61.31860 | 24588 ft | 475 kts | 12° |
| 2026-04-22 05:09 | 57.19781 | 61.33920 | 25027 ft | 477 kts | 12° |
| 2026-04-22 05:09 | 57.22919 | 61.36022 | 25442 ft | 480 kts | 13° |
| 2026-04-22 05:09 | 57.26051 | 61.38172 | 25845 ft | 484 kts | 15° |
| 2026-04-22 05:10 | 57.29137 | 61.40668 | 26248 ft | 489 kts | 20° |
| 2026-04-22 05:10 | 57.32239 | 61.43708 | 26631 ft | 495 kts | 24° |
| 2026-04-22 05:10 | 57.35217 | 61.47009 | 27026 ft | 498 kts | 26° |
| 2026-04-22 05:10 | 57.38150 | 61.50392 | 27490 ft | 498 kts | 27° |
| 2026-04-22 05:11 | 57.41056 | 61.53767 | 28026 ft | 495 kts | 27° |
| 2026-04-22 05:11 | 57.43957 | 61.57108 | 28488 ft | 493 kts | 27° |
| 2026-04-22 05:11 | 57.46848 | 61.60416 | 28861 ft | 492 kts | 27° |
| 2026-04-22 05:11 | 57.49773 | 61.63749 | 29220 ft | 492 kts | 27° |
| 2026-04-22 05:12 | 57.52699 | 61.67083 | 29554 ft | 492 kts | 28° |
| 2026-04-22 05:12 | 57.55589 | 61.70399 | 29889 ft | 491 kts | 28° |
| 2026-04-22 05:12 | 57.58497 | 61.73742 | 30157 ft | 491 kts | 28° |
| 2026-04-22 05:12 | 57.61353 | 61.77197 | 30461 ft | 494 kts | 32° |
| 2026-04-22 05:13 | 57.64112 | 61.81014 | 30750 ft | 496 kts | 36° |
| 2026-04-22 05:13 | 57.66756 | 61.85228 | 31015 ft | 498 kts | 41° |
| 2026-04-22 05:13 | 57.69242 | 61.89648 | 31322 ft | 499 kts | 43° |
| 2026-04-22 05:13 | 57.71720 | 61.94214 | 31561 ft | 499 kts | 43° |
| 2026-04-22 05:14 | 57.74186 | 61.98798 | 31608 ft | 500 kts | 43° |
| 2026-04-22 05:14 | 57.79076 | 62.07858 | 31628 ft | 498 kts | 43° |
| 2026-04-22 05:15 | 57.84001 | 62.16969 | 31639 ft | 498 kts | 43° |
| 2026-04-22 05:15 | 57.88941 | 62.26115 | 31635 ft | 498 kts | 43° |
| 2026-04-22 05:16 | 57.93826 | 62.35198 | 31638 ft | 498 kts | 43° |
| 2026-04-22 05:16 | 57.98732 | 62.44355 | 31641 ft | 497 kts | 43° |
| 2026-04-22 05:17 | 58.03634 | 62.53543 | 31641 ft | 498 kts | 43° |
| 2026-04-22 05:17 | 58.08523 | 62.62743 | 31643 ft | 498 kts | 44° |
| 2026-04-22 05:18 | 58.15902 | 62.76671 | 31645 ft | 499 kts | 44° |
| 2026-04-22 05:18 | 58.20789 | 62.85948 | 31625 ft | 499 kts | 45° |
| 2026-04-22 05:19 | 58.25650 | 62.95219 | 31635 ft | 499 kts | 45° |
| 2026-04-22 05:19 | 58.30547 | 63.04610 | 31645 ft | 499 kts | 45° |
| 2026-04-22 05:20 | 58.35379 | 63.13916 | 31633 ft | 499 kts | 45° |
| 2026-04-22 05:20 | 58.40234 | 63.23299 | 31640 ft | 499 kts | 45° |
| 2026-04-22 05:21 | 58.45092 | 63.32730 | 31642 ft | 499 kts | 45° |
| 2026-04-22 05:21 | 58.49932 | 63.42167 | 31633 ft | 499 kts | 45° |
| 2026-04-22 05:22 | 58.54772 | 63.51641 | 31615 ft | 500 kts | 45° |
| 2026-04-22 05:22 | 58.59613 | 63.61160 | 31634 ft | 500 kts | 45° |
| 2026-04-22 05:23 | 58.64431 | 63.70677 | 31610 ft | 500 kts | 47° |
| 2026-04-22 05:23 | 58.69246 | 63.80250 | 31616 ft | 500 kts | 47° |
| 2026-04-22 05:24 | 58.74065 | 63.89845 | 31604 ft | 500 kts | 47° |
| 2026-04-22 05:24 | 58.78891 | 63.99489 | 31619 ft | 501 kts | 47° |
| 2026-04-22 05:25 | 58.83693 | 64.09117 | 31620 ft | 500 kts | 47° |
| 2026-04-22 05:25 | 58.88501 | 64.18796 | 31619 ft | 500 kts | 47° |
| 2026-04-22 05:26 | 58.93306 | 64.28518 | 31623 ft | 499 kts | 47° |
| 2026-04-22 05:26 | 58.98067 | 64.38188 | 31607 ft | 500 kts | 47° |
| 2026-04-22 05:27 | 59.02856 | 64.47952 | 31610 ft | 500 kts | 47° |
| 2026-04-22 05:27 | 59.07614 | 64.57700 | 31613 ft | 500 kts | 47° |
| 2026-04-22 05:28 | 59.12396 | 64.67522 | 31617 ft | 501 kts | 48° |
| 2026-04-22 05:28 | 59.17205 | 64.77422 | 31621 ft | 501 kts | 48° |
| 2026-04-22 05:29 | 59.21997 | 64.87365 | 31621 ft | 501 kts | 48° |
| 2026-04-22 05:29 | 59.26742 | 64.97258 | 31614 ft | 501 kts | 49° |
| 2026-04-22 05:30 | 59.31473 | 65.07162 | 31615 ft | 501 kts | 49° |
| 2026-04-22 05:30 | 59.36198 | 65.17104 | 31621 ft | 500 kts | 49° |
| 2026-04-22 05:31 | 59.40923 | 65.27080 | 31617 ft | 500 kts | 49° |
| 2026-04-22 05:31 | 59.45622 | 65.37056 | 31590 ft | 499 kts | 49° |
| 2026-04-22 05:32 | 59.50331 | 65.47098 | 31607 ft | 500 kts | 49° |
| 2026-04-22 05:32 | 59.55018 | 65.57134 | 31595 ft | 498 kts | 49° |
| 2026-04-22 05:33 | 59.59676 | 65.67160 | 31604 ft | 498 kts | 50° |
| 2026-04-22 05:33 | 59.64359 | 65.77306 | 31581 ft | 498 kts | 50° |
| 2026-04-22 05:34 | 59.68993 | 65.87376 | 31602 ft | 497 kts | 50° |
| 2026-04-22 05:34 | 59.73599 | 65.97504 | 31603 ft | 497 kts | 51° |
| 2026-04-22 05:35 | 59.78114 | 66.07797 | 31606 ft | 494 kts | 52° |
| 2026-04-22 05:35 | 59.82601 | 66.18092 | 31615 ft | 495 kts | 52° |
| 2026-04-22 05:36 | 59.87086 | 66.28393 | 31625 ft | 496 kts | 51° |
| 2026-04-22 05:36 | 59.91603 | 66.38795 | 31602 ft | 497 kts | 51° |
| 2026-04-22 05:37 | 59.96102 | 66.49191 | 31597 ft | 495 kts | 51° |
| 2026-04-22 05:37 | 60.00577 | 66.59603 | 31590 ft | 496 kts | 51° |
| 2026-04-22 05:38 | 60.05080 | 66.70139 | 31603 ft | 497 kts | 52° |
| 2026-04-22 05:38 | 60.09527 | 66.80628 | 31586 ft | 496 kts | 53° |
| 2026-04-22 05:39 | 60.14022 | 66.91209 | 31590 ft | 496 kts | 52° |
| 2026-04-22 05:39 | 60.18518 | 67.01829 | 31590 ft | 497 kts | 52° |
| 2026-04-22 05:40 | 60.22940 | 67.12345 | 31592 ft | 495 kts | 52° |
| 2026-04-22 05:40 | 60.27367 | 67.22953 | 31594 ft | 496 kts | 53° |
| 2026-04-22 05:41 | 60.31805 | 67.33637 | 31601 ft | 498 kts | 52° |
| 2026-04-22 05:41 | 60.36260 | 67.44392 | 31600 ft | 498 kts | 53° |
| 2026-04-22 05:42 | 60.40679 | 67.55132 | 31609 ft | 499 kts | 52° |
| 2026-04-22 05:42 | 60.45109 | 67.65944 | 31617 ft | 499 kts | 53° |
| 2026-04-22 05:43 | 60.49558 | 67.76878 | 31600 ft | 499 kts | 53° |
| 2026-04-22 05:43 | 60.53953 | 67.87722 | 31621 ft | 499 kts | 53° |
| 2026-04-22 05:44 | 60.58367 | 67.98653 | 31611 ft | 500 kts | 53° |
| 2026-04-22 05:44 | 60.62763 | 68.09583 | 31607 ft | 499 kts | 53° |
| 2026-04-22 05:45 | 60.67182 | 68.20617 | 31613 ft | 498 kts | 53° |
| 2026-04-22 05:45 | 60.71556 | 68.31594 | 31612 ft | 497 kts | 53° |
| 2026-04-22 05:46 | 60.75872 | 68.42484 | 31609 ft | 497 kts | 53° |
| 2026-04-22 05:46 | 60.80221 | 68.53488 | 31626 ft | 496 kts | 53° |
| 2026-04-22 05:47 | 60.84561 | 68.64533 | 31630 ft | 497 kts | 53° |
| 2026-04-22 05:47 | 60.88889 | 68.75603 | 31572 ft | 497 kts | 54° |
| 2026-04-22 05:48 | 60.91049 | 68.81147 | 30848 ft | 503 kts | 54° |
| 2026-04-22 05:48 | 60.93219 | 68.86726 | 30043 ft | 505 kts | 54° |
| 2026-04-22 05:48 | 60.95403 | 68.92348 | 29347 ft | 502 kts | 53° |
| 2026-04-22 05:48 | 60.97551 | 68.97898 | 28710 ft | 498 kts | 54° |
| 2026-04-22 05:49 | 60.99699 | 69.03456 | 28059 ft | 496 kts | 54° |
| 2026-04-22 05:49 | 61.01786 | 69.09127 | 27383 ft | 491 kts | 60° |
| 2026-04-22 05:49 | 61.03381 | 69.15247 | 26718 ft | 481 kts | 72° |
| 2026-04-22 05:49 | 61.04390 | 69.21622 | 26232 ft | 469 kts | 81° |
| 2026-04-22 05:50 | 61.05114 | 69.28091 | 25794 ft | 460 kts | 83° |
| 2026-04-22 05:50 | 61.05777 | 69.34511 | 25354 ft | 455 kts | 83° |
| 2026-04-22 05:50 | 61.06432 | 69.40838 | 24903 ft | 450 kts | 83° |
| 2026-04-22 05:50 | 61.07089 | 69.47087 | 24459 ft | 445 kts | 82° |
| 2026-04-22 05:51 | 61.07758 | 69.53341 | 24029 ft | 441 kts | 82° |
| 2026-04-22 05:51 | 61.08418 | 69.59485 | 23608 ft | 437 kts | 82° |
| 2026-04-22 05:51 | 61.09076 | 69.65567 | 23188 ft | 433 kts | 83° |
| 2026-04-22 05:51 | 61.09729 | 69.71631 | 22763 ft | 430 kts | 83° |
| 2026-04-22 05:52 | 61.10385 | 69.77724 | 22333 ft | 426 kts | 82° |
| 2026-04-22 05:52 | 61.11037 | 69.83672 | 21910 ft | 423 kts | 82° |
| 2026-04-22 05:52 | 61.11681 | 69.89623 | 21480 ft | 420 kts | 83° |
| 2026-04-22 05:52 | 61.12300 | 69.95442 | 21056 ft | 416 kts | 82° |
| 2026-04-22 05:53 | 61.12919 | 70.01315 | 20620 ft | 413 kts | 83° |
| 2026-04-22 05:53 | 61.13517 | 70.07090 | 20196 ft | 410 kts | 83° |
| 2026-04-22 05:53 | 61.14079 | 70.12771 | 19773 ft | 407 kts | 83° |
| 2026-04-22 05:53 | 61.14640 | 70.18516 | 19334 ft | 404 kts | 83° |
| 2026-04-22 05:54 | 61.15189 | 70.24162 | 18892 ft | 401 kts | 83° |
| 2026-04-22 05:54 | 61.15733 | 70.29787 | 18457 ft | 399 kts | 83° |
| 2026-04-22 05:54 | 61.16278 | 70.35420 | 18039 ft | 395 kts | 83° |
| 2026-04-22 05:54 | 61.16814 | 70.40978 | 17626 ft | 392 kts | 83° |
| 2026-04-22 05:55 | 61.17341 | 70.46475 | 17218 ft | 389 kts | 82° |
| 2026-04-22 05:55 | 61.17860 | 70.51928 | 16815 ft | 385 kts | 82° |
| 2026-04-22 05:55 | 61.18375 | 70.57333 | 16405 ft | 382 kts | 83° |
| 2026-04-22 05:55 | 61.18884 | 70.62718 | 15995 ft | 379 kts | 82° |
| 2026-04-22 05:56 | 61.19391 | 70.68101 | 15588 ft | 376 kts | 83° |
| 2026-04-22 05:56 | 61.19891 | 70.73451 | 15186 ft | 373 kts | 83° |
| 2026-04-22 05:56 | 61.20378 | 70.78678 | 14784 ft | 370 kts | 83° |
| 2026-04-22 05:56 | 61.20863 | 70.83924 | 14384 ft | 367 kts | 83° |
| 2026-04-22 05:57 | 61.21339 | 70.89068 | 13993 ft | 364 kts | 83° |
| 2026-04-22 05:57 | 61.21812 | 70.94230 | 13594 ft | 361 kts | 83° |
| 2026-04-22 05:57 | 61.22248 | 70.99315 | 13204 ft | 359 kts | 84° |
| 2026-04-22 05:57 | 61.22666 | 71.04353 | 12799 ft | 356 kts | 84° |
| 2026-04-22 05:58 | 61.23078 | 71.09369 | 12378 ft | 353 kts | 84° |
| 2026-04-22 05:58 | 61.23488 | 71.14378 | 11973 ft | 350 kts | 84° |
| 2026-04-22 05:58 | 61.23896 | 71.19367 | 11567 ft | 347 kts | 84° |
| 2026-04-22 05:58 | 61.24298 | 71.24291 | 11179 ft | 344 kts | 84° |
| 2026-04-22 05:59 | 61.24693 | 71.29155 | 10786 ft | 341 kts | 84° |
| 2026-04-22 05:59 | 61.25089 | 71.34036 | 10398 ft | 338 kts | 84° |
| 2026-04-22 05:59 | 61.25477 | 71.38831 | 10074 ft | 331 kts | 85° |
| 2026-04-22 05:59 | 61.25847 | 71.43409 | 9971 ft | 317 kts | 85° |
| 2026-04-22 06:00 | 61.26203 | 71.47822 | 9902 ft | 302 kts | 85° |
| 2026-04-22 06:00 | 61.26540 | 71.52032 | 9835 ft | 288 kts | 85° |
| 2026-04-22 06:00 | 61.26859 | 71.56050 | 9775 ft | 278 kts | 86° |
| 2026-04-22 06:00 | 61.27164 | 71.59975 | 9483 ft | 277 kts | 86° |
| 2026-04-22 06:01 | 61.27470 | 71.63923 | 9197 ft | 275 kts | 86° |
| 2026-04-22 06:01 | 61.27778 | 71.67880 | 8913 ft | 272 kts | 87° |
| 2026-04-22 06:01 | 61.28077 | 71.71727 | 8640 ft | 270 kts | 87° |
| 2026-04-22 06:01 | 61.28378 | 71.75567 | 8372 ft | 267 kts | 86° |
| 2026-04-22 06:02 | 61.28718 | 71.79345 | 8051 ft | 267 kts | 85° |
| 2026-04-22 06:02 | 61.29079 | 71.83112 | 7746 ft | 265 kts | 85° |
| 2026-04-22 06:02 | 61.29436 | 71.86842 | 7454 ft | 262 kts | 85° |
| 2026-04-22 06:02 | 61.29785 | 71.90544 | 7177 ft | 258 kts | 85° |
| 2026-04-22 06:03 | 61.30123 | 71.94161 | 6916 ft | 255 kts | 85° |
| 2026-04-22 06:03 | 61.30453 | 71.97723 | 6647 ft | 252 kts | 86° |
| 2026-04-22 06:03 | 61.30783 | 72.01284 | 6383 ft | 249 kts | 86° |
| 2026-04-22 06:03 | 61.31108 | 72.04809 | 6128 ft | 246 kts | 86° |
| 2026-04-22 06:04 | 61.31383 | 72.08288 | 5865 ft | 241 kts | 91° |
| 2026-04-22 06:04 | 61.31525 | 72.11859 | 5858 ft | 254 kts | 93° |
| 2026-04-22 06:04 | 61.31646 | 72.15522 | 5834 ft | 256 kts | 92° |
| 2026-04-22 06:04 | 61.31770 | 72.19247 | 5821 ft | 256 kts | 92° |
| 2026-04-22 06:05 | 61.31893 | 72.22936 | 5826 ft | 256 kts | 92° |
| 2026-04-22 06:05 | 61.32016 | 72.26633 | 5821 ft | 256 kts | 92° |
| 2026-04-22 06:05 | 61.32137 | 72.30329 | 5826 ft | 256 kts | 93° |
| 2026-04-22 06:05 | 61.32257 | 72.34031 | 5820 ft | 256 kts | 92° |
| 2026-04-22 06:06 | 61.32376 | 72.37711 | 5818 ft | 256 kts | 92° |
| 2026-04-22 06:06 | 61.32495 | 72.41398 | 5828 ft | 256 kts | 92° |
| 2026-04-22 06:06 | 61.32614 | 72.45123 | 5788 ft | 257 kts | 93° |
| 2026-04-22 06:06 | 61.32729 | 72.48819 | 5474 ft | 256 kts | 92° |
| 2026-04-22 06:07 | 61.32844 | 72.52449 | 5207 ft | 252 kts | 93° |
| 2026-04-22 06:07 | 61.32958 | 72.56064 | 4947 ft | 249 kts | 93° |
| 2026-04-22 06:07 | 61.33069 | 72.59637 | 4689 ft | 246 kts | 93° |
| 2026-04-22 06:07 | 61.33175 | 72.63138 | 4443 ft | 242 kts | 94° |
| 2026-04-22 06:08 | 61.33282 | 72.66654 | 4193 ft | 239 kts | 95° |
| 2026-04-22 06:08 | 61.33386 | 72.70092 | 3952 ft | 235 kts | 95° |
| 2026-04-22 06:08 | 61.33502 | 72.73450 | 3708 ft | 235 kts | 90° |
| 2026-04-22 06:08 | 61.33792 | 72.76790 | 3465 ft | 233 kts | 90° |
| 2026-04-22 06:09 | 61.33985 | 72.80110 | 3229 ft | 227 kts | 93° |
| 2026-04-22 06:09 | 61.34148 | 72.83369 | 2980 ft | 225 kts | 93° |
| 2026-04-22 06:09 | 61.34266 | 72.86573 | 2748 ft | 221 kts | 95° |
| 2026-04-22 06:09 | 61.34326 | 72.89737 | 2505 ft | 219 kts | 95° |
| 2026-04-22 06:10 | 61.34350 | 72.92850 | 2295 ft | 213 kts | 96° |
| 2026-04-22 06:10 | 61.34358 | 72.95860 | 2287 ft | 198 kts | 96° |
| 2026-04-22 06:10 | 61.34358 | 72.98603 | 2273 ft | 184 kts | 97° |
| 2026-04-22 06:10 | 61.34352 | 73.01238 | 2257 ft | 183 kts | 97° |
| 2026-04-22 06:11 | 61.34345 | 73.03908 | 2224 ft | 183 kts | 97° |
| 2026-04-22 06:11 | 61.34340 | 73.06553 | 2177 ft | 185 kts | 97° |
| 2026-04-22 06:11 | 61.34338 | 73.09222 | 2138 ft | 184 kts | 97° |
| 2026-04-22 06:11 | 61.34340 | 73.11811 | 2095 ft | 173 kts | 97° |
| 2026-04-22 06:12 | 61.34343 | 73.14229 | 1978 ft | 164 kts | 96° |
| 2026-04-22 06:12 | 61.34345 | 73.16614 | 1975 ft | 160 kts | 97° |
| 2026-04-22 06:12 | 61.34349 | 73.18819 | 1872 ft | 149 kts | 98° |
| 2026-04-22 06:12 | 61.34351 | 73.20916 | 1640 ft | 140 kts | 97° |
| 2026-04-22 06:13 | 61.34355 | 73.22849 | 1420 ft | 127 kts | 97° |
| 2026-04-22 06:13 | 61.34357 | 73.24648 | 1257 ft | 125 kts | 97° |
| 2026-04-22 06:13 | 61.34358 | 73.26466 | 1147 ft | 126 kts | 97° |
| 2026-04-22 06:13 | 61.34361 | 73.28275 | 950 ft | 124 kts | 96° |
| 2026-04-22 06:14 | 61.34364 | 73.30068 | 765 ft | 124 kts | 96° |
| 2026-04-22 06:14 | 61.34368 | 73.31861 | 589 ft | 124 kts | 95° |
| 2026-04-22 06:14 | 61.34372 | 73.33645 | 413 ft | 124 kts | 94° |
| 2026-04-22 06:14 | 61.34382 | 73.35413 | 267 ft | 121 kts | 94° |
| 2026-04-22 06:15 | 61.34378 | 73.37175 | 60 ft | 119 kts | 95° |
| 2026-04-22 06:15 | 61.34395 | 73.38852 | 12 ft | 107 kts | 96° |
| 2026-04-22 06:15 | 61.34377 | 73.40118 | 2 ft | 58 kts | 88° |
| 2026-04-22 06:15 | 61.34391 | 73.40626 | 1 ft | 21 kts | 91° |
| 2026-04-22 06:16 | 61.34387 | 73.40859 | 1 ft | 13 kts | 102° |
| 2026-04-22 06:16 | 61.34314 | 73.40947 | 1 ft | 10 kts | 179° |